createdAt,value
2019-03-06T00:00:39.729Z,998.44
2019-03-06T00:01:39.720Z,998.48
2019-03-06T00:02:39.715Z,998.43
2019-03-06T00:03:39.705Z,998.44
2019-03-06T00:04:39.699Z,998.45
2019-03-06T00:05:39.690Z,998.47
2019-03-06T00:06:39.682Z,998.47
2019-03-06T00:07:39.675Z,998.44
2019-03-06T00:08:39.712Z,998.48
2019-03-06T00:09:39.660Z,998.44
2019-03-06T00:10:39.652Z,998.41
2019-03-06T00:11:39.642Z,998.43
2019-03-06T00:12:39.636Z,998.40
2019-03-06T00:13:39.627Z,998.34
2019-03-06T00:14:39.621Z,998.36
2019-03-06T00:15:39.613Z,998.40
2019-03-06T00:16:39.605Z,998.37
2019-03-06T00:17:39.598Z,998.35
2019-03-06T00:18:39.590Z,998.35
2019-03-06T00:19:39.581Z,998.32
2019-03-06T00:20:39.577Z,998.32
2019-03-06T00:21:39.567Z,998.30
2019-03-06T00:22:39.559Z,998.31
2019-03-06T00:23:39.551Z,998.26
2019-03-06T00:24:39.544Z,998.29
2019-03-06T00:25:39.537Z,998.22
2019-03-06T00:26:39.531Z,998.25
2019-03-06T00:27:39.521Z,998.23
2019-03-06T00:28:39.513Z,998.25
2019-03-06T00:29:39.505Z,998.25
2019-03-06T00:30:39.498Z,998.25
2019-03-06T00:31:39.489Z,998.21
2019-03-06T00:32:39.482Z,998.20
2019-03-06T00:33:39.475Z,998.22
2019-03-06T00:34:39.468Z,998.20
2019-03-06T00:35:39.459Z,998.14
2019-03-06T00:36:39.452Z,998.18
2019-03-06T00:37:39.444Z,998.16
2019-03-06T00:38:39.439Z,998.19
2019-03-06T00:39:39.430Z,998.17
2019-03-06T00:40:39.475Z,998.13
2019-03-06T00:41:39.415Z,998.15
2019-03-06T00:42:39.409Z,998.14
2019-03-06T00:43:39.400Z,998.14
2019-03-06T00:44:39.391Z,998.19
2019-03-06T00:45:39.386Z,998.18
2019-03-06T00:46:39.378Z,998.20
2019-03-06T00:47:39.370Z,998.20
2019-03-06T00:48:39.362Z,998.19
2019-03-06T00:49:39.353Z,998.15
2019-03-06T00:50:39.346Z,998.16
2019-03-06T00:51:39.339Z,998.19
2019-03-06T00:52:39.332Z,998.22
2019-03-06T00:53:39.324Z,998.23
2019-03-06T00:54:39.316Z,998.25
2019-03-06T00:55:39.309Z,998.27
2019-03-06T00:56:39.302Z,998.26
2019-03-06T00:57:39.295Z,998.23
2019-03-06T00:58:39.287Z,998.23
2019-03-06T00:59:39.278Z,998.24
2019-03-06T01:00:39.272Z,998.26
2019-03-06T01:01:39.264Z,998.32
2019-03-06T01:02:39.256Z,998.27
2019-03-06T01:03:39.248Z,998.26
2019-03-06T01:04:39.243Z,998.29
2019-03-06T01:05:39.235Z,998.23
2019-03-06T01:06:39.226Z,998.27
2019-03-06T01:07:39.219Z,998.25
2019-03-06T01:08:39.213Z,998.24
2019-03-06T01:09:39.205Z,998.22
2019-03-06T01:10:39.196Z,998.22
2019-03-06T01:11:39.189Z,998.24
2019-03-06T01:12:39.242Z,998.18
2019-03-06T01:13:39.176Z,998.18
2019-03-06T01:14:39.169Z,998.18
2019-03-06T01:15:39.159Z,998.15
2019-03-06T01:16:39.152Z,998.12
2019-03-06T01:17:39.146Z,998.05
2019-03-06T01:18:39.139Z,998.05
2019-03-06T01:19:39.131Z,998.02
2019-03-06T01:20:39.123Z,998.00
2019-03-06T01:21:39.116Z,998.01
2019-03-06T01:22:39.109Z,998.01
2019-03-06T01:23:39.101Z,997.96
2019-03-06T01:24:39.095Z,997.98
2019-03-06T01:25:39.089Z,997.94
2019-03-06T01:26:39.081Z,997.91
2019-03-06T01:27:39.111Z,997.94
2019-03-06T01:28:39.065Z,997.95
2019-03-06T01:29:39.059Z,997.95
2019-03-06T01:30:39.052Z,997.96
2019-03-06T01:31:39.043Z,997.95
2019-03-06T01:32:39.036Z,997.92
2019-03-06T01:33:39.030Z,997.88
2019-03-06T01:34:39.023Z,997.89
2019-03-06T01:35:39.015Z,997.88
2019-03-06T01:36:39.012Z,997.86
2019-03-06T01:37:39.001Z,997.87
2019-03-06T01:38:38.995Z,997.86
2019-03-06T01:39:38.986Z,997.82
2019-03-06T01:40:38.979Z,997.85
2019-03-06T01:41:38.975Z,997.89
2019-03-06T01:42:38.968Z,997.88
2019-03-06T01:43:38.958Z,997.83
2019-03-06T01:44:38.951Z,997.84
2019-03-06T01:45:38.943Z,997.81
2019-03-06T01:46:38.937Z,997.77
2019-03-06T01:47:38.931Z,997.82
2019-03-06T01:48:38.928Z,997.80
2019-03-06T01:49:38.917Z,997.75
2019-03-06T01:50:38.910Z,997.74
2019-03-06T01:51:38.901Z,997.72
2019-03-06T01:52:38.895Z,997.70
2019-03-06T01:53:38.889Z,997.69
2019-03-06T01:54:38.881Z,997.69
2019-03-06T01:55:38.873Z,997.64
2019-03-06T01:56:38.866Z,997.63
2019-03-06T01:57:38.860Z,997.62
2019-03-06T01:58:38.853Z,997.65
2019-03-06T01:59:38.845Z,997.59
2019-03-06T02:00:38.840Z,997.55
2019-03-06T02:01:38.832Z,997.50
2019-03-06T02:02:38.825Z,997.48
2019-03-06T02:03:39.043Z,997.44
2019-03-06T02:04:38.812Z,997.45
2019-03-06T02:05:38.805Z,997.42
2019-03-06T02:06:38.796Z,997.37
2019-03-06T02:07:38.791Z,997.44
2019-03-06T02:08:38.782Z,997.44
2019-03-06T02:09:38.777Z,997.40
2019-03-06T02:10:38.771Z,997.40
2019-03-06T02:11:38.761Z,997.37
2019-03-06T02:12:38.755Z,997.39
2019-03-06T02:13:38.748Z,997.39
2019-03-06T02:14:38.742Z,997.37
2019-03-06T02:15:38.735Z,997.33
2019-03-06T02:16:38.728Z,997.36
2019-03-06T02:17:38.721Z,997.31
2019-03-06T02:18:38.741Z,997.32
2019-03-06T02:19:38.706Z,997.32
2019-03-06T02:20:38.701Z,997.29
2019-03-06T02:21:38.747Z,997.31
2019-03-06T02:22:38.686Z,997.31
2019-03-06T02:23:38.680Z,997.26
2019-03-06T02:24:38.673Z,997.23
2019-03-06T02:25:38.667Z,997.19
2019-03-06T02:26:38.660Z,997.21
2019-03-06T02:27:38.653Z,997.20
2019-03-06T02:28:38.646Z,997.16
2019-03-06T02:29:38.639Z,997.18
2019-03-06T02:30:38.634Z,997.14
2019-03-06T02:31:38.624Z,997.10
2019-03-06T02:32:38.617Z,997.10
2019-03-06T02:33:38.611Z,997.12
2019-03-06T02:34:38.607Z,997.09
2019-03-06T02:35:38.606Z,997.08
2019-03-06T02:36:38.593Z,997.10
2019-03-06T02:37:38.587Z,997.05
2019-03-06T02:38:38.581Z,997.02
2019-03-06T02:39:38.571Z,997.05
2019-03-06T02:40:38.565Z,997.05
2019-03-06T02:41:38.560Z,997.04
2019-03-06T02:42:38.562Z,997.04
2019-03-06T02:43:38.544Z,997.02
2019-03-06T02:44:40.050Z,996.97
2019-03-06T02:45:38.531Z,996.93
2019-03-06T02:46:38.525Z,996.89
2019-03-06T02:47:38.517Z,996.92
2019-03-06T02:48:38.512Z,996.88
2019-03-06T02:49:38.506Z,996.87
2019-03-06T02:50:38.498Z,996.87
2019-03-06T02:51:38.491Z,996.82
2019-03-06T02:52:38.484Z,996.83
2019-03-06T02:53:38.482Z,996.78
2019-03-06T02:54:38.489Z,996.79
2019-03-06T02:55:38.464Z,996.76
2019-03-06T02:56:38.458Z,996.79
2019-03-06T02:57:38.453Z,996.77
2019-03-06T02:58:38.444Z,996.72
2019-03-06T02:59:38.437Z,996.69
2019-03-06T03:00:38.491Z,996.67
2019-03-06T03:01:38.426Z,996.70
2019-03-06T03:02:38.419Z,996.64
2019-03-06T03:03:38.411Z,996.65
2019-03-06T03:04:38.405Z,996.62
2019-03-06T03:05:38.399Z,996.64
2019-03-06T03:06:38.392Z,996.67
2019-03-06T03:07:38.386Z,996.60
2019-03-06T03:08:38.383Z,996.62
2019-03-06T03:09:38.371Z,996.61
2019-03-06T03:10:38.367Z,996.63
2019-03-06T03:11:38.360Z,996.63
2019-03-06T03:12:38.351Z,996.62
2019-03-06T03:13:38.346Z,996.58
2019-03-06T03:14:38.343Z,996.56
2019-03-06T03:15:38.331Z,996.55
2019-03-06T03:16:38.327Z,996.57
2019-03-06T03:17:38.321Z,996.53
2019-03-06T03:18:38.312Z,996.50
2019-03-06T03:19:38.307Z,996.38
2019-03-06T03:20:38.298Z,996.37
2019-03-06T03:21:38.294Z,996.36
2019-03-06T03:22:38.286Z,996.39
2019-03-06T03:23:38.278Z,996.36
2019-03-06T03:24:38.273Z,996.34
2019-03-06T03:25:38.266Z,996.31
2019-03-06T03:26:38.261Z,996.31
2019-03-06T03:27:38.252Z,996.27
2019-03-06T03:28:38.252Z,996.28
2019-03-06T03:29:38.239Z,996.32
2019-03-06T03:30:38.254Z,996.24
2019-03-06T03:31:38.226Z,996.29
2019-03-06T03:32:38.220Z,996.24
2019-03-06T03:33:38.215Z,996.24
2019-03-06T03:34:38.221Z,996.22
2019-03-06T03:35:38.198Z,996.19
2019-03-06T03:36:38.195Z,996.18
2019-03-06T03:37:38.184Z,996.15
2019-03-06T03:38:38.179Z,996.11
2019-03-06T03:39:38.174Z,996.15
2019-03-06T03:40:38.176Z,996.13
2019-03-06T03:41:38.161Z,996.14
2019-03-06T03:42:38.153Z,996.15
2019-03-06T03:43:38.148Z,996.12
2019-03-06T03:44:38.140Z,996.12
2019-03-06T03:45:38.131Z,996.13
2019-03-06T03:46:38.125Z,996.11
2019-03-06T03:47:38.119Z,996.10
2019-03-06T03:48:38.113Z,996.09
2019-03-06T03:49:38.107Z,996.06
2019-03-06T03:50:38.100Z,996.06
2019-03-06T03:51:38.093Z,996.05
2019-03-06T03:52:38.086Z,996.00
2019-03-06T03:53:38.080Z,996.00
2019-03-06T03:54:38.072Z,996.01
2019-03-06T03:55:38.066Z,995.94
2019-03-06T03:56:38.059Z,995.94
2019-03-06T03:57:38.053Z,995.95
2019-03-06T03:58:38.047Z,995.90
2019-03-06T03:59:38.039Z,995.90
2019-03-06T04:00:38.033Z,995.92
2019-03-06T04:01:38.027Z,995.91
2019-03-06T04:02:38.019Z,995.95
2019-03-06T04:03:38.015Z,995.94
2019-03-06T04:04:38.007Z,995.90
2019-03-06T04:05:37.999Z,995.90
2019-03-06T04:06:37.995Z,995.90
2019-03-06T04:07:37.989Z,995.88
2019-03-06T04:08:37.978Z,995.88
2019-03-06T04:09:37.973Z,995.88
2019-03-06T04:10:37.986Z,995.87
2019-03-06T04:11:37.960Z,995.87
2019-03-06T04:12:37.964Z,995.88
2019-03-06T04:13:38.018Z,995.89
2019-03-06T04:14:38.039Z,995.91
2019-03-06T04:15:37.931Z,995.89
2019-03-06T04:16:37.926Z,995.89
2019-03-06T04:17:37.919Z,995.88
2019-03-06T04:18:37.914Z,995.89
2019-03-06T04:19:37.907Z,995.93
2019-03-06T04:20:37.902Z,995.90
2019-03-06T04:21:37.894Z,995.90
2019-03-06T04:22:37.889Z,995.94
2019-03-06T04:23:37.881Z,995.93
2019-03-06T04:24:37.874Z,995.94
2019-03-06T04:25:37.869Z,995.94
2019-03-06T04:26:37.861Z,995.93
2019-03-06T04:27:37.854Z,995.93
2019-03-06T04:28:37.847Z,995.93
2019-03-06T04:29:37.841Z,995.94
2019-03-06T04:30:37.835Z,996.00
2019-03-06T04:31:37.826Z,995.94
2019-03-06T04:32:37.820Z,995.93
2019-03-06T04:33:37.814Z,995.94
2019-03-06T04:34:37.807Z,995.94
2019-03-06T04:35:37.800Z,995.97
2019-03-06T04:36:37.795Z,995.97
2019-03-06T04:37:37.787Z,995.96
2019-03-06T04:38:37.780Z,995.97
2019-03-06T04:39:37.774Z,995.92
2019-03-06T04:40:37.768Z,995.85
2019-03-06T04:41:37.761Z,995.81
2019-03-06T04:42:37.757Z,995.85
2019-03-06T04:43:37.748Z,995.82
2019-03-06T04:44:37.741Z,995.82
2019-03-06T04:45:37.735Z,995.77
2019-03-06T04:46:37.732Z,995.76
2019-03-06T04:47:37.725Z,995.70
2019-03-06T04:48:37.716Z,995.71
2019-03-06T04:49:37.709Z,995.67
2019-03-06T04:50:37.705Z,995.65
2019-03-06T04:51:37.696Z,995.64
2019-03-06T04:52:37.690Z,995.66
2019-03-06T04:53:37.684Z,995.62
2019-03-06T04:54:37.677Z,995.65
2019-03-06T04:55:37.670Z,995.57
2019-03-06T04:56:37.668Z,995.57
2019-03-06T04:57:37.658Z,995.53
2019-03-06T04:58:37.652Z,995.53
2019-03-06T04:59:37.646Z,995.46
2019-03-06T05:00:37.639Z,995.45
2019-03-06T05:01:37.631Z,995.44
2019-03-06T05:02:37.625Z,995.46
2019-03-06T05:03:37.619Z,995.42
2019-03-06T05:04:37.613Z,995.38
2019-03-06T05:05:37.605Z,995.42
2019-03-06T05:06:37.600Z,995.36
2019-03-06T05:07:37.592Z,995.34
2019-03-06T05:08:37.586Z,995.33
2019-03-06T05:09:37.580Z,995.31
2019-03-06T05:10:37.574Z,995.34
2019-03-06T05:11:37.567Z,995.29
2019-03-06T05:12:37.562Z,995.29
2019-03-06T05:13:37.556Z,995.28
2019-03-06T05:14:37.548Z,995.24
2019-03-06T05:15:37.541Z,995.24
2019-03-06T05:16:37.535Z,995.20
2019-03-06T05:17:37.529Z,995.18
2019-03-06T05:18:37.523Z,995.18
2019-03-06T05:19:37.515Z,995.14
2019-03-06T05:20:37.510Z,995.18
2019-03-06T05:21:37.504Z,995.15
2019-03-06T05:22:37.496Z,995.09
2019-03-06T05:23:37.490Z,995.12
2019-03-06T05:24:37.485Z,995.11
2019-03-06T05:25:37.480Z,995.05
2019-03-06T05:26:37.471Z,995.05
2019-03-06T05:27:37.463Z,995.03
2019-03-06T05:28:37.458Z,995.02
2019-03-06T05:29:37.452Z,995.00
2019-03-06T05:30:37.447Z,994.98
2019-03-06T05:31:37.439Z,994.91
2019-03-06T05:32:37.434Z,994.96
2019-03-06T05:33:37.428Z,994.95
2019-03-06T05:34:37.428Z,994.98
2019-03-06T05:35:37.412Z,994.95
2019-03-06T05:36:37.417Z,994.95
2019-03-06T05:37:37.401Z,994.96
2019-03-06T05:38:37.395Z,994.93
2019-03-06T05:39:37.386Z,994.96
2019-03-06T05:40:37.380Z,994.91
2019-03-06T05:41:37.375Z,994.90
2019-03-06T05:42:37.370Z,994.94
2019-03-06T05:43:37.362Z,994.89
2019-03-06T05:44:37.355Z,994.87
2019-03-06T05:45:37.350Z,994.89
2019-03-06T05:46:37.345Z,994.88
2019-03-06T05:47:37.337Z,994.84
2019-03-06T05:48:37.330Z,994.82
2019-03-06T05:49:37.323Z,994.84
2019-03-06T05:50:37.321Z,994.77
2019-03-06T05:51:37.311Z,994.74
2019-03-06T05:52:37.305Z,994.71
2019-03-06T05:53:37.297Z,994.64
2019-03-06T05:54:37.291Z,994.57
2019-03-06T05:55:37.286Z,994.57
2019-03-06T05:56:37.279Z,994.53
2019-03-06T05:57:37.272Z,994.51
2019-03-06T05:58:37.267Z,994.48
2019-03-06T05:59:37.273Z,994.43
2019-03-06T06:00:37.256Z,994.41
2019-03-06T06:01:37.247Z,994.40
2019-03-06T06:02:37.241Z,994.39
2019-03-06T06:03:37.235Z,994.33
2019-03-06T06:04:37.228Z,994.33
2019-03-06T06:05:37.222Z,994.33
2019-03-06T06:06:37.215Z,994.33
2019-03-06T06:07:37.209Z,994.32
2019-03-06T06:08:37.203Z,994.30
2019-03-06T06:09:37.197Z,994.25
2019-03-06T06:10:37.192Z,994.20
2019-03-06T06:11:37.184Z,994.20
2019-03-06T06:12:37.180Z,994.18
2019-03-06T06:13:37.174Z,994.22
2019-03-06T06:14:37.165Z,994.18
2019-03-06T06:15:37.160Z,994.18
2019-03-06T06:16:37.152Z,994.14
2019-03-06T06:17:37.146Z,994.17
2019-03-06T06:18:37.138Z,994.18
2019-03-06T06:19:37.135Z,994.16
2019-03-06T06:20:37.126Z,994.15
2019-03-06T06:21:37.118Z,994.18
2019-03-06T06:22:37.112Z,994.18
2019-03-06T06:23:37.107Z,994.24
2019-03-06T06:24:37.099Z,994.20
2019-03-06T06:25:37.095Z,994.19
2019-03-06T06:26:37.089Z,994.20
2019-03-06T06:27:37.079Z,994.18
2019-03-06T06:28:37.075Z,994.18
2019-03-06T06:29:37.067Z,994.18
2019-03-06T06:30:37.061Z,994.20
2019-03-06T06:31:37.054Z,994.21
2019-03-06T06:32:37.051Z,994.17
2019-03-06T06:33:37.043Z,994.19
2019-03-06T06:34:37.035Z,994.16
2019-03-06T06:35:37.031Z,994.19
2019-03-06T06:36:37.025Z,994.18
2019-03-06T06:37:37.020Z,994.15
2019-03-06T06:38:37.574Z,994.14
2019-03-06T06:39:37.005Z,994.13
2019-03-06T06:40:36.997Z,994.09
2019-03-06T06:41:36.991Z,994.06
2019-03-06T06:42:36.985Z,994.01
2019-03-06T06:43:36.978Z,994.01
2019-03-06T06:44:36.972Z,993.97
2019-03-06T06:45:36.965Z,993.95
2019-03-06T06:46:36.968Z,993.93
2019-03-06T06:47:36.953Z,993.96
2019-03-06T06:48:36.947Z,993.95
2019-03-06T06:49:36.941Z,993.95
2019-03-06T06:50:36.933Z,993.88
2019-03-06T06:51:36.927Z,993.82
2019-03-06T06:52:36.932Z,993.85
2019-03-06T06:53:36.914Z,993.86
2019-03-06T06:54:36.926Z,993.80
2019-03-06T06:55:36.901Z,993.80
2019-03-06T06:56:36.898Z,993.79
2019-03-06T06:57:36.889Z,993.77
2019-03-06T06:58:36.884Z,993.74
2019-03-06T06:59:36.876Z,993.74
2019-03-06T07:00:36.870Z,993.72
2019-03-06T07:01:36.864Z,993.67
2019-03-06T07:02:36.860Z,993.66
2019-03-06T07:03:36.852Z,993.63
2019-03-06T07:04:36.846Z,993.67
2019-03-06T07:05:36.841Z,993.67
2019-03-06T07:06:36.839Z,993.60
2019-03-06T07:07:36.829Z,993.65
2019-03-06T07:08:36.820Z,993.58
2019-03-06T07:09:36.815Z,993.56
2019-03-06T07:10:36.811Z,993.56
2019-03-06T07:11:36.802Z,993.60
2019-03-06T07:12:36.797Z,993.59
2019-03-06T07:13:36.792Z,993.57
2019-03-06T07:14:36.784Z,993.57
2019-03-06T07:15:36.779Z,993.56
2019-03-06T07:16:36.772Z,993.48
2019-03-06T07:17:36.765Z,993.48
2019-03-06T07:18:36.759Z,993.46
2019-03-06T07:19:36.752Z,993.45
2019-03-06T07:20:36.746Z,993.38
2019-03-06T07:21:36.741Z,993.42
2019-03-06T07:22:36.736Z,993.41
2019-03-06T07:23:36.729Z,993.40
2019-03-06T07:24:36.722Z,993.38
2019-03-06T07:25:36.718Z,993.36
2019-03-06T07:26:36.710Z,993.35
2019-03-06T07:27:36.704Z,993.31
2019-03-06T07:28:36.700Z,993.31
2019-03-06T07:29:36.692Z,993.31
2019-03-06T07:30:36.686Z,993.31
2019-03-06T07:31:36.680Z,993.25
2019-03-06T07:32:36.675Z,993.24
2019-03-06T07:33:36.669Z,993.23
2019-03-06T07:34:36.662Z,993.25
2019-03-06T07:35:36.755Z,993.23
2019-03-06T07:36:36.651Z,993.24
2019-03-06T07:37:36.644Z,993.22
2019-03-06T07:38:36.639Z,993.21
2019-03-06T07:39:36.632Z,993.24
2019-03-06T07:40:36.686Z,993.23
2019-03-06T07:41:36.620Z,993.24
2019-03-06T07:42:36.674Z,993.24
2019-03-06T07:43:36.608Z,993.22
2019-03-06T07:44:36.602Z,993.22
2019-03-06T07:45:36.596Z,993.19
2019-03-06T07:46:36.591Z,993.19
2019-03-06T07:47:36.586Z,993.17
2019-03-06T07:48:36.581Z,993.20
2019-03-06T07:49:44.631Z,993.23
2019-03-06T07:50:36.568Z,993.20
2019-03-06T07:51:36.562Z,993.25
2019-03-06T07:52:36.557Z,993.22
2019-03-06T07:53:36.550Z,993.21
2019-03-06T07:54:36.544Z,993.21
2019-03-06T07:55:36.539Z,993.16
2019-03-06T07:56:36.537Z,993.17
2019-03-06T07:57:36.527Z,993.21
2019-03-06T07:58:36.521Z,993.17
2019-03-06T07:59:36.517Z,993.19
2019-03-06T08:00:36.511Z,993.20
2019-03-06T08:01:36.504Z,993.15
2019-03-06T08:02:36.499Z,993.17
2019-03-06T08:03:36.491Z,993.15
2019-03-06T08:04:36.514Z,993.16
2019-03-06T08:05:36.484Z,993.14
2019-03-06T08:06:36.479Z,993.14
2019-03-06T08:07:36.470Z,993.15
2019-03-06T08:08:36.463Z,993.14
2019-03-06T08:09:36.462Z,993.15
2019-03-06T08:10:36.453Z,993.08
2019-03-06T08:11:36.445Z,993.03
2019-03-06T08:12:36.440Z,993.01
2019-03-06T08:13:36.435Z,993.00
2019-03-06T08:14:36.431Z,993.01
2019-03-06T08:15:36.423Z,993.02
2019-03-06T08:16:36.418Z,992.99
2019-03-06T08:17:36.413Z,992.98
2019-03-06T08:18:36.407Z,993.01
2019-03-06T08:19:36.402Z,992.96
2019-03-06T08:20:36.396Z,992.96
2019-03-06T08:21:36.392Z,992.90
2019-03-06T08:22:36.394Z,992.89
2019-03-06T08:23:36.380Z,992.92
2019-03-06T08:24:36.375Z,992.87
2019-03-06T08:25:36.369Z,992.89
2019-03-06T08:26:36.364Z,992.90
2019-03-06T08:27:36.361Z,992.85
2019-03-06T08:28:36.353Z,992.85
2019-03-06T08:29:36.348Z,992.79
2019-03-06T08:30:36.341Z,992.83
2019-03-06T08:31:36.337Z,992.79
2019-03-06T08:32:36.332Z,992.81
2019-03-06T08:33:36.326Z,992.77
2019-03-06T08:34:36.321Z,992.76
2019-03-06T08:35:36.318Z,992.77
2019-03-06T08:36:36.310Z,992.73
2019-03-06T08:37:36.305Z,992.70
2019-03-06T08:38:36.301Z,992.71
2019-03-06T08:39:36.295Z,992.67
2019-03-06T08:40:36.293Z,992.65
2019-03-06T08:41:36.284Z,992.64
2019-03-06T08:42:36.280Z,992.67
2019-03-06T08:43:36.277Z,992.64
2019-03-06T08:44:36.268Z,992.62
2019-03-06T08:45:36.264Z,992.58
2019-03-06T08:46:36.259Z,992.58
2019-03-06T08:47:36.252Z,992.58
2019-03-06T08:48:36.249Z,992.60
2019-03-06T08:49:36.246Z,992.55
2019-03-06T08:50:36.239Z,992.49
2019-03-06T08:51:36.231Z,992.46
2019-03-06T08:52:36.228Z,992.45
2019-03-06T08:53:36.224Z,992.43
2019-03-06T08:54:36.217Z,992.42
2019-03-06T08:55:36.215Z,992.40
2019-03-06T08:56:36.207Z,992.39
2019-03-06T08:57:36.202Z,992.35
2019-03-06T08:58:36.198Z,992.35
2019-03-06T08:59:36.191Z,992.34
2019-03-06T09:00:36.193Z,992.38
2019-03-06T09:01:36.184Z,992.39
2019-03-06T09:02:36.176Z,992.38
2019-03-06T09:03:36.171Z,992.38
2019-03-06T09:04:36.173Z,992.41
2019-03-06T09:05:36.163Z,992.43
2019-03-06T09:06:36.158Z,992.39
2019-03-06T09:07:36.152Z,992.42
2019-03-06T09:08:36.148Z,992.40
2019-03-06T09:09:36.147Z,992.44
2019-03-06T09:10:36.139Z,992.43
2019-03-06T09:11:36.133Z,992.44
2019-03-06T09:12:36.126Z,992.42
2019-03-06T09:13:36.122Z,992.39
2019-03-06T09:14:36.117Z,992.31
2019-03-06T09:15:36.112Z,992.32
2019-03-06T09:16:36.108Z,992.33
2019-03-06T09:17:36.103Z,992.34
2019-03-06T09:18:36.098Z,992.32
2019-03-06T09:19:36.102Z,992.31
2019-03-06T09:20:39.986Z,992.31
2019-03-06T09:21:36.085Z,992.24
2019-03-06T09:22:36.082Z,992.26
2019-03-06T09:23:36.073Z,992.20
2019-03-06T09:24:36.070Z,992.22
2019-03-06T09:25:36.066Z,992.15
2019-03-06T09:26:36.060Z,992.21
2019-03-06T09:27:36.056Z,992.20
2019-03-06T09:28:36.054Z,992.19
2019-03-06T09:29:36.046Z,992.21
2019-03-06T09:30:36.046Z,992.16
2019-03-06T09:31:36.036Z,992.07
2019-03-06T09:32:36.032Z,992.14
2019-03-06T09:33:36.029Z,992.09
2019-03-06T09:34:36.025Z,992.07
2019-03-06T09:35:36.020Z,992.03
2019-03-06T09:36:36.016Z,992.01
2019-03-06T09:37:36.011Z,991.94
2019-03-06T09:38:36.009Z,991.90
2019-03-06T09:39:36.001Z,991.91
2019-03-06T09:40:35.999Z,991.87
2019-03-06T09:41:35.994Z,991.91
2019-03-06T09:42:35.991Z,991.88
2019-03-06T09:43:35.997Z,991.82
2019-03-06T09:44:35.982Z,991.85
2019-03-06T09:45:35.978Z,991.79
2019-03-06T09:46:35.975Z,991.75
2019-03-06T09:47:35.975Z,991.76
2019-03-06T09:48:35.967Z,991.70
2019-03-06T09:49:35.965Z,991.67
2019-03-06T09:50:35.959Z,991.70
2019-03-06T09:51:35.957Z,991.73
2019-03-06T09:52:35.952Z,991.67
2019-03-06T09:53:35.950Z,991.63
2019-03-06T09:54:35.945Z,991.66
2019-03-06T09:55:35.941Z,991.62
2019-03-06T09:56:35.938Z,991.61
2019-03-06T09:57:35.933Z,991.66
2019-03-06T09:58:35.931Z,991.66
2019-03-06T09:59:35.927Z,991.61
2019-03-06T10:00:35.923Z,991.60
2019-03-06T10:01:35.923Z,991.56
2019-03-06T10:02:35.918Z,991.51
2019-03-06T10:03:35.915Z,991.45
2019-03-06T10:04:35.909Z,991.46
2019-03-06T10:05:35.911Z,991.49
2019-03-06T10:06:35.903Z,991.44
2019-03-06T10:07:35.899Z,991.38
2019-03-06T10:08:35.895Z,991.40
2019-03-06T10:09:35.892Z,991.33
2019-03-06T10:10:35.888Z,991.47
2019-03-06T10:11:35.885Z,991.47
2019-03-06T10:12:35.883Z,991.42
2019-03-06T10:13:41.704Z,991.40
2019-03-06T10:14:35.875Z,991.41
2019-03-06T10:15:35.886Z,991.26
2019-03-06T10:16:35.869Z,991.28
2019-03-06T10:17:35.868Z,991.26
2019-03-06T10:18:35.864Z,991.21
2019-03-06T10:19:35.861Z,991.10
2019-03-06T10:20:35.859Z,991.18
2019-03-06T10:21:35.859Z,991.08
2019-03-06T10:22:35.855Z,991.07
2019-03-06T10:23:35.852Z,991.01
2019-03-06T10:24:35.849Z,991.03
2019-03-06T10:25:35.847Z,991.01
2019-03-06T10:26:35.854Z,990.93
2019-03-06T10:27:35.843Z,990.86
2019-03-06T10:28:36.679Z,990.81
2019-03-06T10:29:35.841Z,990.80
2019-03-06T10:30:35.836Z,990.79
2019-03-06T10:31:35.834Z,990.76
2019-03-06T10:32:35.832Z,990.77
2019-03-06T10:33:35.831Z,990.85
2019-03-06T10:34:35.828Z,990.82
2019-03-06T10:35:35.824Z,990.80
2019-03-06T10:36:35.829Z,990.82
2019-03-06T10:37:35.821Z,990.78
2019-03-06T10:38:35.819Z,990.80
2019-03-06T10:39:35.816Z,990.73
2019-03-06T10:40:35.815Z,990.70
2019-03-06T10:41:35.811Z,990.67
2019-03-06T10:42:35.811Z,990.63
2019-03-06T10:43:35.806Z,990.67
2019-03-06T10:44:35.803Z,990.66
2019-03-06T10:45:42.008Z,990.69
2019-03-06T10:46:35.798Z,990.61
2019-03-06T10:47:35.795Z,990.65
2019-03-06T10:48:35.793Z,990.65
2019-03-06T10:49:35.790Z,990.69
2019-03-06T10:50:35.788Z,990.72
2019-03-06T10:51:35.783Z,990.69
2019-03-06T10:52:35.782Z,990.63
2019-03-06T10:53:41.586Z,990.66
2019-03-06T10:54:44.318Z,990.63
2019-03-06T10:55:35.773Z,990.61
2019-03-06T10:56:35.772Z,990.60
2019-03-06T10:57:35.769Z,990.63
2019-03-06T10:58:35.765Z,990.73
2019-03-06T10:59:35.765Z,990.55
2019-03-06T11:00:35.760Z,990.56
2019-03-06T11:01:35.757Z,990.65
2019-03-06T11:02:35.755Z,990.67
2019-03-06T11:03:35.752Z,990.66
2019-03-06T11:04:35.749Z,990.66
2019-03-06T11:05:35.748Z,990.68
2019-03-06T11:06:35.743Z,990.68
2019-03-06T11:07:35.744Z,990.67
2019-03-06T11:08:35.738Z,990.67
2019-03-06T11:09:35.738Z,990.63
2019-03-06T11:10:35.734Z,990.63
2019-03-06T11:11:35.731Z,990.67
2019-03-06T11:12:35.730Z,990.68
2019-03-06T11:13:35.727Z,990.60
2019-03-06T11:14:35.728Z,990.64
2019-03-06T11:15:35.721Z,990.61
2019-03-06T11:16:36.760Z,990.59
2019-03-06T11:17:35.718Z,990.55
2019-03-06T11:18:35.716Z,990.48
2019-03-06T11:19:35.730Z,990.52
2019-03-06T11:20:35.715Z,990.53
2019-03-06T11:21:35.712Z,990.55
2019-03-06T11:22:35.710Z,990.40
2019-03-06T11:23:35.709Z,990.36
2019-03-06T11:24:35.705Z,990.34
2019-03-06T11:25:35.704Z,990.36
2019-03-06T11:26:35.703Z,990.36
2019-03-06T11:27:35.701Z,990.35
2019-03-06T11:28:35.698Z,990.38
2019-03-06T11:29:35.698Z,990.45
2019-03-06T11:30:35.695Z,990.50
2019-03-06T11:31:35.693Z,990.62
2019-03-06T11:32:35.692Z,990.43
2019-03-06T11:33:36.874Z,990.33
2019-03-06T11:34:35.691Z,990.41
2019-03-06T11:35:35.689Z,990.31
2019-03-06T11:36:35.687Z,990.31
2019-03-06T11:37:35.687Z,990.27
2019-03-06T11:38:35.685Z,990.27
2019-03-06T11:39:35.684Z,990.24
2019-03-06T11:40:35.685Z,990.18
2019-03-06T11:41:35.682Z,990.19
2019-03-06T11:42:35.681Z,990.14
2019-03-06T11:43:35.679Z,990.18
2019-03-06T11:44:35.678Z,990.13
2019-03-06T11:45:35.677Z,990.05
2019-03-06T11:46:35.676Z,990.04
2019-03-06T11:47:35.676Z,990.02
2019-03-06T11:48:35.675Z,990.01
2019-03-06T11:49:35.673Z,989.94
2019-03-06T11:50:40.876Z,989.87
2019-03-06T11:51:35.673Z,989.90
2019-03-06T11:52:35.670Z,989.81
2019-03-06T11:53:35.668Z,989.77
2019-03-06T11:54:35.669Z,989.70
2019-03-06T11:55:35.666Z,989.68
2019-03-06T11:56:35.664Z,989.62
2019-03-06T11:57:35.665Z,989.65
2019-03-06T11:58:35.662Z,989.61
2019-03-06T11:59:35.661Z,989.64
2019-03-06T12:00:35.659Z,989.63
2019-03-06T12:01:35.659Z,989.62
2019-03-06T12:02:35.656Z,989.57
2019-03-06T12:03:35.654Z,989.57
2019-03-06T12:04:35.653Z,989.56
2019-03-06T12:05:35.652Z,989.56
2019-03-06T12:06:35.652Z,989.56
2019-03-06T12:07:35.649Z,989.55
2019-03-06T12:08:35.653Z,989.54
2019-03-06T12:09:35.647Z,989.54
2019-03-06T12:10:35.645Z,989.42
2019-03-06T12:11:35.643Z,989.39
2019-03-06T12:12:35.641Z,989.36
2019-03-06T12:13:35.640Z,989.32
2019-03-06T12:14:35.638Z,989.26
2019-03-06T12:15:35.637Z,989.24
2019-03-06T12:16:41.634Z,989.19
2019-03-06T12:17:35.634Z,989.23
2019-03-06T12:18:35.633Z,989.18
2019-03-06T12:19:35.629Z,989.14
2019-03-06T12:20:35.629Z,989.10
2019-03-06T12:21:35.628Z,989.12
2019-03-06T12:22:35.628Z,989.04
2019-03-06T12:23:35.626Z,988.98
2019-03-06T12:24:35.623Z,988.93
2019-03-06T12:25:35.622Z,988.96
2019-03-06T12:26:35.621Z,988.85
2019-03-06T12:27:35.619Z,988.90
2019-03-06T12:28:35.620Z,988.90